sensor_id;sensor_type;location;lat;lon;timestamp;P1;durP1;ratioP1;P2;durP2;ratioP2
65463;SDS011;52063;45.110;9.870;2023-04-03T00:00:53;1.93;;;1.23;;
65463;SDS011;52063;45.110;9.870;2023-04-03T00:03:19;1.80;;;1.23;;
65463;SDS011;52063;45.110;9.870;2023-04-03T00:05:45;2.90;;;1.10;;
65463;SDS011;52063;45.110;9.870;2023-04-03T00:08:11;2.40;;;1.27;;
65463;SDS011;52063;45.110;9.870;2023-04-03T00:10:36;2.00;;;1.13;;
65463;SDS011;52063;45.110;9.870;2023-04-03T00:13:02;1.83;;;1.08;;
65463;SDS011;52063;45.110;9.870;2023-04-03T00:15:29;1.85;;;1.10;;
65463;SDS011;52063;45.110;9.870;2023-04-03T00:17:54;2.47;;;1.20;;
65463;SDS011;52063;45.110;9.870;2023-04-03T00:20:19;1.47;;;1.10;;
65463;SDS011;52063;45.110;9.870;2023-04-03T00:22:45;1.47;;;1.10;;
65463;SDS011;52063;45.110;9.870;2023-04-03T00:25:11;2.27;;;1.30;;
65463;SDS011;52063;45.110;9.870;2023-04-03T00:27:37;1.20;;;1.10;;
65463;SDS011;52063;45.110;9.870;2023-04-03T00:30:03;1.92;;;1.35;;
65463;SDS011;52063;45.110;9.870;2023-04-03T00:32:29;2.00;;;1.33;;
65463;SDS011;52063;45.110;9.870;2023-04-03T00:34:54;1.77;;;1.10;;
65463;SDS011;52063;45.110;9.870;2023-04-03T00:37:20;2.95;;;1.33;;
65463;SDS011;52063;45.110;9.870;2023-04-03T00:39:45;1.27;;;1.00;;
65463;SDS011;52063;45.110;9.870;2023-04-03T00:42:11;1.27;;;1.17;;
65463;SDS011;52063;45.110;9.870;2023-04-03T00:47:03;1.43;;;1.20;;
65463;SDS011;52063;45.110;9.870;2023-04-03T00:49:31;3.30;;;1.15;;
65463;SDS011;52063;45.110;9.870;2023-04-03T00:51:56;1.53;;;1.20;;
65463;SDS011;52063;45.110;9.870;2023-04-03T00:54:22;2.03;;;0.97;;
65463;SDS011;52063;45.110;9.870;2023-04-03T00:56:48;1.50;;;1.13;;
65463;SDS011;52063;45.110;9.870;2023-04-03T00:59:17;1.37;;;1.20;;
65463;SDS011;52063;45.110;9.870;2023-04-03T01:01:48;1.00;;;0.90;;
65463;SDS011;52063;45.110;9.870;2023-04-03T01:07:11;1.30;;;1.00;;
65463;SDS011;52063;45.110;9.870;2023-04-03T01:09:39;1.40;;;1.30;;
65463;SDS011;52063;45.110;9.870;2023-04-03T01:12:18;1.60;;;1.30;;
65463;SDS011;52063;45.110;9.870;2023-04-03T01:14:46;1.15;;;1.00;;
65463;SDS011;52063;45.110;9.870;2023-04-03T01:25:37;2.15;;;1.13;;
65463;SDS011;52063;45.110;9.870;2023-04-03T01:28:05;1.40;;;1.00;;
65463;SDS011;52063;45.110;9.870;2023-04-03T01:30:34;2.85;;;1.00;;
65463;SDS011;52063;45.110;9.870;2023-04-03T01:33:03;1.95;;;1.15;;
65463;SDS011;52063;45.110;9.870;2023-04-03T01:35:29;1.37;;;1.03;;
65463;SDS011;52063;45.110;9.870;2023-04-03T01:37:55;2.00;;;1.40;;
65463;SDS011;52063;45.110;9.870;2023-04-03T01:40:21;1.90;;;1.47;;
65463;SDS011;52063;45.110;9.870;2023-04-03T01:42:46;1.30;;;1.20;;
65463;SDS011;52063;45.110;9.870;2023-04-03T01:45:12;1.70;;;0.88;;
65463;SDS011;52063;45.110;9.870;2023-04-03T01:47:37;1.73;;;1.30;;
65463;SDS011;52063;45.110;9.870;2023-04-03T01:50:04;1.40;;;1.10;;
65463;SDS011;52063;45.110;9.870;2023-04-03T01:52:31;1.52;;;1.23;;
65463;SDS011;52063;45.110;9.870;2023-04-03T01:54:57;1.50;;;1.30;;
65463;SDS011;52063;45.110;9.870;2023-04-03T01:57:23;1.63;;;1.20;;
65463;SDS011;52063;45.110;9.870;2023-04-03T01:59:48;1.48;;;1.15;;
65463;SDS011;52063;45.110;9.870;2023-04-03T02:02:14;1.83;;;1.20;;
65463;SDS011;52063;45.110;9.870;2023-04-03T02:04:40;2.22;;;1.05;;
65463;SDS011;52063;45.110;9.870;2023-04-03T02:07:06;1.27;;;1.10;;
65463;SDS011;52063;45.110;9.870;2023-04-03T02:09:32;1.40;;;0.97;;
65463;SDS011;52063;45.110;9.870;2023-04-03T02:11:57;1.20;;;1.08;;
65463;SDS011;52063;45.110;9.870;2023-04-03T02:14:23;1.40;;;1.30;;
65463;SDS011;52063;45.110;9.870;2023-04-03T02:16:49;2.20;;;1.00;;
65463;SDS011;52063;45.110;9.870;2023-04-03T02:19:15;1.37;;;1.00;;
65463;SDS011;52063;45.110;9.870;2023-04-03T02:21:41;1.45;;;1.13;;
65463;SDS011;52063;45.110;9.870;2023-04-03T02:24:06;1.38;;;1.27;;
65463;SDS011;52063;45.110;9.870;2023-04-03T02:26:33;1.45;;;1.30;;
65463;SDS011;52063;45.110;9.870;2023-04-03T02:28:58;1.30;;;1.20;;
65463;SDS011;52063;45.110;9.870;2023-04-03T02:31:24;1.40;;;1.10;;
65463;SDS011;52063;45.110;9.870;2023-04-03T02:33:50;1.50;;;1.25;;
65463;SDS011;52063;45.110;9.870;2023-04-03T02:36:17;1.45;;;1.17;;
65463;SDS011;52063;45.110;9.870;2023-04-03T02:38:48;1.33;;;1.17;;
65463;SDS011;52063;45.110;9.870;2023-04-03T02:41:13;2.37;;;1.30;;
65463;SDS011;52063;45.110;9.870;2023-04-03T02:43:39;1.20;;;1.10;;
65463;SDS011;52063;45.110;9.870;2023-04-03T02:46:05;1.75;;;1.38;;
65463;SDS011;52063;45.110;9.870;2023-04-03T02:48:32;1.30;;;1.20;;
65463;SDS011;52063;45.110;9.870;2023-04-03T02:50:58;1.50;;;1.15;;
65463;SDS011;52063;45.110;9.870;2023-04-03T02:53:23;1.95;;;1.13;;
65463;SDS011;52063;45.110;9.870;2023-04-03T02:55:50;1.10;;;1.00;;
65463;SDS011;52063;45.110;9.870;2023-04-03T02:58:15;1.50;;;1.40;;
65463;SDS011;52063;45.110;9.870;2023-04-03T03:00:41;1.43;;;1.13;;
65463;SDS011;52063;45.110;9.870;2023-04-03T03:03:06;1.40;;;1.20;;
65463;SDS011;52063;45.110;9.870;2023-04-03T03:05:32;1.73;;;1.10;;
65463;SDS011;52063;45.110;9.870;2023-04-03T03:07:57;1.60;;;1.30;;
65463;SDS011;52063;45.110;9.870;2023-04-03T03:10:23;3.75;;;1.30;;
65463;SDS011;52063;45.110;9.870;2023-04-03T03:12:48;1.70;;;1.20;;
65463;SDS011;52063;45.110;9.870;2023-04-03T03:15:14;1.93;;;1.23;;
65463;SDS011;52063;45.110;9.870;2023-04-03T03:17:40;2.08;;;1.30;;
65463;SDS011;52063;45.110;9.870;2023-04-03T03:20:06;1.30;;;1.20;;
65463;SDS011;52063;45.110;9.870;2023-04-03T03:22:33;1.67;;;1.33;;
65463;SDS011;52063;45.110;9.870;2023-04-03T03:24:59;1.80;;;1.40;;
65463;SDS011;52063;45.110;9.870;2023-04-03T03:27:25;1.40;;;1.30;;
65463;SDS011;52063;45.110;9.870;2023-04-03T03:29:51;1.50;;;1.10;;
65463;SDS011;52063;45.110;9.870;2023-04-03T03:32:17;2.20;;;1.30;;
65463;SDS011;52063;45.110;9.870;2023-04-03T03:34:42;1.33;;;1.23;;
65463;SDS011;52063;45.110;9.870;2023-04-03T03:37:08;1.27;;;1.17;;
65463;SDS011;52063;45.110;9.870;2023-04-03T03:39:33;1.35;;;1.17;;
65463;SDS011;52063;45.110;9.870;2023-04-03T03:41:58;1.20;;;1.10;;
65463;SDS011;52063;45.110;9.870;2023-04-03T03:44:24;2.47;;;1.07;;
65463;SDS011;52063;45.110;9.870;2023-04-03T03:46:51;1.30;;;1.20;;
65463;SDS011;52063;45.110;9.870;2023-04-03T03:49:17;2.03;;;1.07;;
65463;SDS011;52063;45.110;9.870;2023-04-03T03:51:42;1.55;;;1.40;;
65463;SDS011;52063;45.110;9.870;2023-04-03T03:54:07;1.50;;;1.10;;
65463;SDS011;52063;45.110;9.870;2023-04-03T03:56:33;2.83;;;1.40;;
65463;SDS011;52063;45.110;9.870;2023-04-03T03:58:59;1.10;;;1.00;;
65463;SDS011;52063;45.110;9.870;2023-04-03T04:01:25;2.05;;;1.20;;
65463;SDS011;52063;45.110;9.870;2023-04-03T04:03:51;1.47;;;0.90;;
65463;SDS011;52063;45.110;9.870;2023-04-03T04:06:22;1.92;;;1.25;;
65463;SDS011;52063;45.110;9.870;2023-04-03T04:08:49;6.05;;;1.17;;
65463;SDS011;52063;45.110;9.870;2023-04-03T04:11:14;1.63;;;1.40;;
65463;SDS011;52063;45.110;9.870;2023-04-03T04:13:41;1.45;;;1.20;;
65463;SDS011;52063;45.110;9.870;2023-04-03T04:16:09;1.50;;;1.20;;
65463;SDS011;52063;45.110;9.870;2023-04-03T04:18:35;1.60;;;1.05;;
65463;SDS011;52063;45.110;9.870;2023-04-03T04:21:00;3.83;;;1.30;;
65463;SDS011;52063;45.110;9.870;2023-04-03T04:23:26;2.40;;;1.00;;
65463;SDS011;52063;45.110;9.870;2023-04-03T04:25:52;1.63;;;1.20;;
65463;SDS011;52063;45.110;9.870;2023-04-03T04:28:19;1.30;;;0.97;;
65463;SDS011;52063;45.110;9.870;2023-04-03T04:30:47;1.63;;;1.10;;
65463;SDS011;52063;45.110;9.870;2023-04-03T04:33:14;2.95;;;1.15;;
65463;SDS011;52063;45.110;9.870;2023-04-03T04:35:42;2.70;;;1.40;;
65463;SDS011;52063;45.110;9.870;2023-04-03T04:38:09;4.95;;;1.30;;
65463;SDS011;52063;45.110;9.870;2023-04-03T04:40:34;1.27;;;0.90;;
65463;SDS011;52063;45.110;9.870;2023-04-03T04:43:00;2.03;;;1.30;;
65463;SDS011;52063;45.110;9.870;2023-04-03T04:45:29;2.60;;;1.40;;
65463;SDS011;52063;45.110;9.870;2023-04-03T04:47:55;2.53;;;1.25;;
65463;SDS011;52063;45.110;9.870;2023-04-03T04:50:23;1.40;;;1.13;;
65463;SDS011;52063;45.110;9.870;2023-04-03T04:52:49;1.97;;;1.10;;
65463;SDS011;52063;45.110;9.870;2023-04-03T04:55:15;1.20;;;0.90;;
65463;SDS011;52063;45.110;9.870;2023-04-03T04:57:40;1.40;;;1.10;;
65463;SDS011;52063;45.110;9.870;2023-04-03T05:00:06;1.60;;;1.25;;
65463;SDS011;52063;45.110;9.870;2023-04-03T05:02:32;1.60;;;1.17;;
65463;SDS011;52063;45.110;9.870;2023-04-03T05:04:58;1.80;;;1.30;;
65463;SDS011;52063;45.110;9.870;2023-04-03T05:07:27;1.23;;;1.08;;
65463;SDS011;52063;45.110;9.870;2023-04-03T05:09:53;2.17;;;1.38;;
65463;SDS011;52063;45.110;9.870;2023-04-03T05:12:19;1.30;;;1.02;;
65463;SDS011;52063;45.110;9.870;2023-04-03T05:14:51;1.63;;;1.40;;
65463;SDS011;52063;45.110;9.870;2023-04-03T05:17:17;1.20;;;1.10;;
65463;SDS011;52063;45.110;9.870;2023-04-03T05:19:48;1.38;;;1.17;;
65463;SDS011;52063;45.110;9.870;2023-04-03T05:22:14;1.80;;;1.30;;
65463;SDS011;52063;45.110;9.870;2023-04-03T05:24:40;1.30;;;1.05;;
65463;SDS011;52063;45.110;9.870;2023-04-03T05:27:06;1.50;;;1.10;;
65463;SDS011;52063;45.110;9.870;2023-04-03T05:29:36;1.40;;;1.27;;
65463;SDS011;52063;45.110;9.870;2023-04-03T05:32:03;1.40;;;1.10;;
65463;SDS011;52063;45.110;9.870;2023-04-03T05:34:29;1.40;;;1.30;;
65463;SDS011;52063;45.110;9.870;2023-04-03T05:36:55;2.08;;;1.50;;
65463;SDS011;52063;45.110;9.870;2023-04-03T05:39:21;1.70;;;1.23;;
65463;SDS011;52063;45.110;9.870;2023-04-03T05:41:47;2.22;;;1.20;;
65463;SDS011;52063;45.110;9.870;2023-04-03T05:44:13;1.33;;;1.10;;
65463;SDS011;52063;45.110;9.870;2023-04-03T05:46:40;1.20;;;1.10;;
65463;SDS011;52063;45.110;9.870;2023-04-03T05:49:08;1.48;;;1.30;;
65463;SDS011;52063;45.110;9.870;2023-04-03T05:51:35;1.70;;;1.10;;
65463;SDS011;52063;45.110;9.870;2023-04-03T05:54:25;2.83;;;1.10;;
65463;SDS011;52063;45.110;9.870;2023-04-03T05:56:57;1.55;;;0.98;;
65463;SDS011;52063;45.110;9.870;2023-04-03T05:59:23;1.05;;;0.93;;
65463;SDS011;52063;45.110;9.870;2023-04-03T06:01:52;0.93;;;0.82;;
65463;SDS011;52063;45.110;9.870;2023-04-03T06:04:18;1.70;;;1.05;;
65463;SDS011;52063;45.110;9.870;2023-04-03T06:06:45;1.37;;;1.00;;
65463;SDS011;52063;45.110;9.870;2023-04-03T06:09:18;1.20;;;1.00;;
65463;SDS011;52063;45.110;9.870;2023-04-03T06:11:45;0.82;;;0.77;;
65463;SDS011;52063;45.110;9.870;2023-04-03T06:14:11;1.13;;;1.00;;
65463;SDS011;52063;45.110;9.870;2023-04-03T06:16:37;1.07;;;0.90;;
65463;SDS011;52063;45.110;9.870;2023-04-03T06:19:06;1.45;;;1.13;;
65463;SDS011;52063;45.110;9.870;2023-04-03T06:21:33;2.85;;;0.90;;
65463;SDS011;52063;45.110;9.870;2023-04-03T06:23:58;1.40;;;1.30;;
65463;SDS011;52063;45.110;9.870;2023-04-03T06:26:24;1.13;;;1.03;;
65463;SDS011;52063;45.110;9.870;2023-04-03T06:28:49;1.73;;;1.20;;
65463;SDS011;52063;45.110;9.870;2023-04-03T06:31:15;1.37;;;1.27;;
65463;SDS011;52063;45.110;9.870;2023-04-03T06:33:41;1.30;;;0.90;;
65463;SDS011;52063;45.110;9.870;2023-04-03T06:36:07;1.50;;;0.83;;
65463;SDS011;52063;45.110;9.870;2023-04-03T06:38:33;1.85;;;1.30;;
65463;SDS011;52063;45.110;9.870;2023-04-03T06:41:00;1.80;;;1.10;;
65463;SDS011;52063;45.110;9.870;2023-04-03T06:43:25;1.60;;;1.17;;
65463;SDS011;52063;45.110;9.870;2023-04-03T06:45:51;1.47;;;1.13;;
65463;SDS011;52063;45.110;9.870;2023-04-03T06:48:17;1.52;;;1.00;;
65463;SDS011;52063;45.110;9.870;2023-04-03T06:50:42;1.10;;;0.90;;
65463;SDS011;52063;45.110;9.870;2023-04-03T06:53:08;1.60;;;1.13;;
65463;SDS011;52063;45.110;9.870;2023-04-03T06:55:34;1.83;;;1.07;;
65463;SDS011;52063;45.110;9.870;2023-04-03T06:58:00;1.30;;;1.10;;
65463;SDS011;52063;45.110;9.870;2023-04-03T07:00:26;1.10;;;0.90;;
65463;SDS011;52063;45.110;9.870;2023-04-03T07:02:52;2.85;;;1.83;;
65463;SDS011;52063;45.110;9.870;2023-04-03T07:05:18;5.17;;;4.07;;
65463;SDS011;52063;45.110;9.870;2023-04-03T07:07:45;5.88;;;5.10;;
65463;SDS011;52063;45.110;9.870;2023-04-03T07:10:10;7.60;;;5.50;;
65463;SDS011;52063;45.110;9.870;2023-04-03T07:12:36;6.80;;;5.30;;
65463;SDS011;52063;45.110;9.870;2023-04-03T07:15:03;5.75;;;4.90;;
65463;SDS011;52063;45.110;9.870;2023-04-03T07:17:30;6.38;;;4.78;;
65463;SDS011;52063;45.110;9.870;2023-04-03T07:19:56;7.13;;;4.73;;
65463;SDS011;52063;45.110;9.870;2023-04-03T07:22:22;7.82;;;5.10;;
65463;SDS011;52063;45.110;9.870;2023-04-03T07:24:47;6.47;;;4.70;;
65463;SDS011;52063;45.110;9.870;2023-04-03T07:27:13;7.20;;;5.53;;
65463;SDS011;52063;45.110;9.870;2023-04-03T07:29:38;7.70;;;6.10;;
65463;SDS011;52063;45.110;9.870;2023-04-03T07:32:04;7.60;;;5.70;;
65463;SDS011;52063;45.110;9.870;2023-04-03T07:34:30;7.97;;;5.73;;
65463;SDS011;52063;45.110;9.870;2023-04-03T07:36:56;6.22;;;5.45;;
65463;SDS011;52063;45.110;9.870;2023-04-03T07:39:22;9.18;;;5.93;;
65463;SDS011;52063;45.110;9.870;2023-04-03T07:41:48;9.20;;;5.47;;
65463;SDS011;52063;45.110;9.870;2023-04-03T07:44:13;8.80;;;4.90;;
65463;SDS011;52063;45.110;9.870;2023-04-03T07:46:39;6.80;;;5.30;;
65463;SDS011;52063;45.110;9.870;2023-04-03T07:49:06;6.28;;;4.68;;
65463;SDS011;52063;45.110;9.870;2023-04-03T07:51:31;8.70;;;4.60;;
65463;SDS011;52063;45.110;9.870;2023-04-03T07:53:57;11.13;;;4.93;;
65463;SDS011;52063;45.110;9.870;2023-04-03T07:56:23;5.50;;;4.53;;
65463;SDS011;52063;45.110;9.870;2023-04-03T07:58:48;6.73;;;4.50;;
65463;SDS011;52063;45.110;9.870;2023-04-03T08:01:13;4.80;;;4.30;;
65463;SDS011;52063;45.110;9.870;2023-04-03T08:03:39;6.57;;;4.70;;
65463;SDS011;52063;45.110;9.870;2023-04-03T08:06:06;6.20;;;4.53;;
65463;SDS011;52063;45.110;9.870;2023-04-03T08:08:33;4.47;;;3.78;;
65463;SDS011;52063;45.110;9.870;2023-04-03T08:10:59;5.07;;;4.47;;
65463;SDS011;52063;45.110;9.870;2023-04-03T08:13:25;7.30;;;4.40;;
65463;SDS011;52063;45.110;9.870;2023-04-03T08:15:51;4.65;;;3.67;;
65463;SDS011;52063;45.110;9.870;2023-04-03T08:18:17;5.35;;;3.83;;
65463;SDS011;52063;45.110;9.870;2023-04-03T08:20:46;9.67;;;3.73;;
65463;SDS011;52063;45.110;9.870;2023-04-03T08:23:12;5.20;;;3.83;;
65463;SDS011;52063;45.110;9.870;2023-04-03T08:25:38;5.50;;;3.73;;
65463;SDS011;52063;45.110;9.870;2023-04-03T08:28:04;4.32;;;3.35;;
65463;SDS011;52063;45.110;9.870;2023-04-03T08:30:30;3.38;;;2.90;;
65463;SDS011;52063;45.110;9.870;2023-04-03T08:32:56;3.70;;;3.27;;
65463;SDS011;52063;45.110;9.870;2023-04-03T08:35:21;8.60;;;3.10;;
65463;SDS011;52063;45.110;9.870;2023-04-03T08:37:47;5.03;;;3.30;;
65463;SDS011;52063;45.110;9.870;2023-04-03T08:40:15;5.33;;;3.10;;
65463;SDS011;52063;45.110;9.870;2023-04-03T08:45:18;3.25;;;2.95;;
65463;SDS011;52063;45.110;9.870;2023-04-03T08:48:13;4.43;;;3.07;;
65463;SDS011;52063;45.110;9.870;2023-04-03T08:50:44;3.35;;;2.97;;
65463;SDS011;52063;45.110;9.870;2023-04-03T08:53:14;3.90;;;2.85;;
65463;SDS011;52063;45.110;9.870;2023-04-03T08:55:47;2.83;;;2.45;;
65463;SDS011;52063;45.110;9.870;2023-04-03T08:59:14;4.60;;;2.70;;
65463;SDS011;52063;45.110;9.870;2023-04-03T09:04:00;2.90;;;2.47;;
65463;SDS011;52063;45.110;9.870;2023-04-03T09:06:26;2.58;;;2.35;;
65463;SDS011;52063;45.110;9.870;2023-04-03T09:11:47;3.63;;;2.58;;
65463;SDS011;52063;45.110;9.870;2023-04-03T09:17:09;3.95;;;2.40;;
65463;SDS011;52063;45.110;9.870;2023-04-03T09:22:27;3.05;;;2.25;;
65463;SDS011;52063;45.110;9.870;2023-04-03T09:27:37;2.30;;;2.10;;
65463;SDS011;52063;45.110;9.870;2023-04-03T09:30:03;3.25;;;2.20;;
65463;SDS011;52063;45.110;9.870;2023-04-03T09:32:33;3.40;;;2.20;;
65463;SDS011;52063;45.110;9.870;2023-04-03T09:35:04;3.75;;;2.40;;
65463;SDS011;52063;45.110;9.870;2023-04-03T09:37:44;2.67;;;2.10;;
65463;SDS011;52063;45.110;9.870;2023-04-03T09:42:57;3.42;;;2.80;;
65463;SDS011;52063;45.110;9.870;2023-04-03T09:45:25;2.90;;;2.53;;
65463;SDS011;52063;45.110;9.870;2023-04-03T09:50:32;2.53;;;2.28;;
65463;SDS011;52063;45.110;9.870;2023-04-03T09:52:58;2.70;;;2.40;;
65463;SDS011;52063;45.110;9.870;2023-04-03T09:55:25;2.07;;;1.87;;
65463;SDS011;52063;45.110;9.870;2023-04-03T09:57:57;2.63;;;2.20;;
65463;SDS011;52063;45.110;9.870;2023-04-03T10:00:25;2.50;;;2.00;;
65463;SDS011;52063;45.110;9.870;2023-04-03T10:03:01;2.95;;;1.90;;
65463;SDS011;52063;45.110;9.870;2023-04-03T10:05:48;2.60;;;2.20;;
65463;SDS011;52063;45.110;9.870;2023-04-03T10:10:42;7.88;;;2.33;;
65463;SDS011;52063;45.110;9.870;2023-04-03T10:13:17;6.00;;;2.37;;
65463;SDS011;52063;45.110;9.870;2023-04-03T10:15:48;3.60;;;2.20;;
65463;SDS011;52063;45.110;9.870;2023-04-03T10:21:24;4.22;;;2.22;;
65463;SDS011;52063;45.110;9.870;2023-04-03T10:31:46;2.95;;;1.90;;
65463;SDS011;52063;45.110;9.870;2023-04-03T10:34:30;3.08;;;2.05;;
65463;SDS011;52063;45.110;9.870;2023-04-03T10:42:17;3.65;;;2.17;;
65463;SDS011;52063;45.110;9.870;2023-04-03T10:48:13;2.90;;;1.80;;
65463;SDS011;52063;45.110;9.870;2023-04-03T10:50:52;2.97;;;1.63;;
65463;SDS011;52063;45.110;9.870;2023-04-03T10:58:48;2.00;;;1.45;;
65463;SDS011;52063;45.110;9.870;2023-04-03T11:01:17;2.67;;;1.75;;
65463;SDS011;52063;45.110;9.870;2023-04-03T11:03:46;1.80;;;1.57;;
65463;SDS011;52063;45.110;9.870;2023-04-03T11:06:15;3.38;;;1.65;;
65463;SDS011;52063;45.110;9.870;2023-04-03T11:09:02;1.90;;;1.40;;
65463;SDS011;52063;45.110;9.870;2023-04-03T11:11:37;1.88;;;1.30;;
65463;SDS011;52063;45.110;9.870;2023-04-03T11:14:05;2.45;;;1.60;;
65463;SDS011;52063;45.110;9.870;2023-04-03T11:16:35;4.37;;;1.77;;
65463;SDS011;52063;45.110;9.870;2023-04-03T11:19:07;2.10;;;1.42;;
65463;SDS011;52063;45.110;9.870;2023-04-03T11:21:38;1.52;;;1.40;;
65463;SDS011;52063;45.110;9.870;2023-04-03T11:24:05;3.72;;;1.45;;
65463;SDS011;52063;45.110;9.870;2023-04-03T11:26:41;2.65;;;1.45;;
65463;SDS011;52063;45.110;9.870;2023-04-03T11:29:12;4.50;;;1.10;;
65463;SDS011;52063;45.110;9.870;2023-04-03T11:36:55;2.80;;;1.30;;
65463;SDS011;52063;45.110;9.870;2023-04-03T11:41:50;2.53;;;1.30;;
65463;SDS011;52063;45.110;9.870;2023-04-03T11:44:29;4.57;;;1.33;;
65463;SDS011;52063;45.110;9.870;2023-04-03T11:47:01;2.72;;;1.27;;
65463;SDS011;52063;45.110;9.870;2023-04-03T12:05:57;1.73;;;1.38;;
65463;SDS011;52063;45.110;9.870;2023-04-03T12:13:37;3.85;;;1.48;;
65463;SDS011;52063;45.110;9.870;2023-04-03T12:16:08;1.67;;;1.40;;
65463;SDS011;52063;45.110;9.870;2023-04-03T12:29:43;2.92;;;1.40;;
65463;SDS011;52063;45.110;9.870;2023-04-03T12:32:20;2.90;;;1.10;;
65463;SDS011;52063;45.110;9.870;2023-04-03T12:38:17;1.88;;;1.10;;
65463;SDS011;52063;45.110;9.870;2023-04-03T12:40:47;1.77;;;1.20;;
65463;SDS011;52063;45.110;9.870;2023-04-03T12:43:36;1.83;;;1.00;;
65463;SDS011;52063;45.110;9.870;2023-04-03T12:48:37;4.53;;;1.17;;
65463;SDS011;52063;45.110;9.870;2023-04-03T12:51:04;1.10;;;0.98;;
65463;SDS011;52063;45.110;9.870;2023-04-03T12:53:36;3.00;;;1.00;;
65463;SDS011;52063;45.110;9.870;2023-04-03T12:58:46;2.53;;;1.00;;
65463;SDS011;52063;45.110;9.870;2023-04-03T13:01:13;1.42;;;0.70;;
65463;SDS011;52063;45.110;9.870;2023-04-03T13:03:44;4.53;;;1.00;;
65463;SDS011;52063;45.110;9.870;2023-04-03T13:06:14;2.88;;;1.13;;
65463;SDS011;52063;45.110;9.870;2023-04-03T13:08:53;1.87;;;1.20;;
65463;SDS011;52063;45.110;9.870;2023-04-03T13:11:22;3.53;;;1.02;;
65463;SDS011;52063;45.110;9.870;2023-04-03T13:13:58;2.97;;;1.48;;
65463;SDS011;52063;45.110;9.870;2023-04-03T13:16:26;3.78;;;1.15;;
65463;SDS011;52063;45.110;9.870;2023-04-03T13:18:52;2.85;;;1.20;;
65463;SDS011;52063;45.110;9.870;2023-04-03T13:21:20;3.30;;;1.63;;
65463;SDS011;52063;45.110;9.870;2023-04-03T13:23:49;1.35;;;1.25;;
65463;SDS011;52063;45.110;9.870;2023-04-03T13:26:17;1.70;;;1.60;;
65463;SDS011;52063;45.110;9.870;2023-04-03T13:28:44;4.95;;;1.60;;
65463;SDS011;52063;45.110;9.870;2023-04-03T13:33:43;2.67;;;1.10;;
65463;SDS011;52063;45.110;9.870;2023-04-03T13:36:21;2.53;;;1.70;;
65463;SDS011;52063;45.110;9.870;2023-04-03T13:39:55;2.00;;;1.80;;
65463;SDS011;52063;45.110;9.870;2023-04-03T13:41:47;3.92;;;1.60;;
65463;SDS011;52063;45.110;9.870;2023-04-03T13:44:23;2.55;;;1.52;;
65463;SDS011;52063;45.110;9.870;2023-04-03T13:46:53;1.80;;;1.67;;
65463;SDS011;52063;45.110;9.870;2023-04-03T13:49:31;3.60;;;1.70;;
65463;SDS011;52063;45.110;9.870;2023-04-03T13:51:59;4.40;;;1.65;;
65463;SDS011;52063;45.110;9.870;2023-04-03T13:54:38;3.63;;;1.92;;
65463;SDS011;52063;45.110;9.870;2023-04-03T13:57:12;3.60;;;1.88;;
65463;SDS011;52063;45.110;9.870;2023-04-03T13:59:39;2.33;;;1.60;;
65463;SDS011;52063;45.110;9.870;2023-04-03T14:07:09;2.97;;;2.10;;
65463;SDS011;52063;45.110;9.870;2023-04-03T14:09:36;4.22;;;1.90;;
65463;SDS011;52063;45.110;9.870;2023-04-03T14:12:04;2.08;;;1.45;;
65463;SDS011;52063;45.110;9.870;2023-04-03T14:14:32;2.83;;;1.90;;
65463;SDS011;52063;45.110;9.870;2023-04-03T14:17:00;3.97;;;1.80;;
65463;SDS011;52063;45.110;9.870;2023-04-03T14:19:30;4.13;;;1.90;;
65463;SDS011;52063;45.110;9.870;2023-04-03T14:21:57;3.28;;;2.00;;
65463;SDS011;52063;45.110;9.870;2023-04-03T14:24:23;2.35;;;1.88;;
65463;SDS011;52063;45.110;9.870;2023-04-03T14:26:50;2.00;;;1.80;;
65463;SDS011;52063;45.110;9.870;2023-04-03T14:29:18;2.53;;;1.77;;
65463;SDS011;52063;45.110;9.870;2023-04-03T14:31:45;4.03;;;1.75;;
65463;SDS011;52063;45.110;9.870;2023-04-03T14:34:13;3.17;;;2.35;;
65463;SDS011;52063;45.110;9.870;2023-04-03T14:36:40;2.60;;;2.00;;
65463;SDS011;52063;45.110;9.870;2023-04-03T14:39:06;3.30;;;1.93;;
65463;SDS011;52063;45.110;9.870;2023-04-03T14:41:33;2.90;;;2.00;;
65463;SDS011;52063;45.110;9.870;2023-04-03T14:43:59;3.10;;;2.03;;
65463;SDS011;52063;45.110;9.870;2023-04-03T14:48:55;2.60;;;2.10;;
65463;SDS011;52063;45.110;9.870;2023-04-03T14:51:20;2.35;;;1.98;;
65463;SDS011;52063;45.110;9.870;2023-04-03T14:53:46;2.30;;;1.80;;
65463;SDS011;52063;45.110;9.870;2023-04-03T14:58:43;2.88;;;2.10;;
65463;SDS011;52063;45.110;9.870;2023-04-03T15:01:12;2.93;;;1.97;;
65463;SDS011;52063;45.110;9.870;2023-04-03T15:03:39;3.50;;;2.00;;
65463;SDS011;52063;45.110;9.870;2023-04-03T15:06:04;2.80;;;2.03;;
65463;SDS011;52063;45.110;9.870;2023-04-03T15:08:30;3.03;;;1.90;;
65463;SDS011;52063;45.110;9.870;2023-04-03T15:10:56;2.33;;;1.60;;
65463;SDS011;52063;45.110;9.870;2023-04-03T15:13:22;2.40;;;1.90;;
65463;SDS011;52063;45.110;9.870;2023-04-03T15:15:48;2.33;;;1.77;;
65463;SDS011;52063;45.110;9.870;2023-04-03T15:18:18;2.67;;;1.80;;
65463;SDS011;52063;45.110;9.870;2023-04-03T15:20:45;2.65;;;2.00;;
65463;SDS011;52063;45.110;9.870;2023-04-03T15:23:12;3.33;;;1.92;;
65463;SDS011;52063;45.110;9.870;2023-04-03T15:25:41;2.05;;;1.85;;
65463;SDS011;52063;45.110;9.870;2023-04-03T15:28:18;2.13;;;1.87;;
65463;SDS011;52063;45.110;9.870;2023-04-03T15:30:47;2.50;;;1.80;;
65463;SDS011;52063;45.110;9.870;2023-04-03T15:33:13;2.00;;;1.80;;
65463;SDS011;52063;45.110;9.870;2023-04-03T15:35:38;7.23;;;2.07;;
65463;SDS011;52063;45.110;9.870;2023-04-03T15:38:04;2.10;;;1.67;;
65463;SDS011;52063;45.110;9.870;2023-04-03T15:40:29;2.53;;;2.10;;
65463;SDS011;52063;45.110;9.870;2023-04-03T15:42:55;1.63;;;1.40;;
65463;SDS011;52063;45.110;9.870;2023-04-03T15:45:20;2.60;;;1.70;;
65463;SDS011;52063;45.110;9.870;2023-04-03T15:47:46;2.28;;;1.95;;
65463;SDS011;52063;45.110;9.870;2023-04-03T15:50:12;1.93;;;1.67;;
65463;SDS011;52063;45.110;9.870;2023-04-03T15:52:37;2.47;;;1.90;;
65463;SDS011;52063;45.110;9.870;2023-04-03T15:55:03;2.10;;;1.70;;
65463;SDS011;52063;45.110;9.870;2023-04-03T15:57:29;2.05;;;1.83;;
65463;SDS011;52063;45.110;9.870;2023-04-03T15:59:55;2.67;;;1.80;;
65463;SDS011;52063;45.110;9.870;2023-04-03T16:02:21;3.25;;;1.92;;
65463;SDS011;52063;45.110;9.870;2023-04-03T16:04:47;2.07;;;1.83;;
65463;SDS011;52063;45.110;9.870;2023-04-03T16:07:12;3.10;;;1.73;;
65463;SDS011;52063;45.110;9.870;2023-04-03T16:09:38;2.50;;;1.83;;
65463;SDS011;52063;45.110;9.870;2023-04-03T16:12:03;2.10;;;1.57;;
65463;SDS011;52063;45.110;9.870;2023-04-03T16:14:29;2.80;;;1.70;;
65463;SDS011;52063;45.110;9.870;2023-04-03T16:16:56;2.13;;;1.85;;
65463;SDS011;52063;45.110;9.870;2023-04-03T16:19:22;2.40;;;1.70;;
65463;SDS011;52063;45.110;9.870;2023-04-03T16:21:48;3.33;;;1.98;;
65463;SDS011;52063;45.110;9.870;2023-04-03T16:24:13;2.67;;;1.63;;
65463;SDS011;52063;45.110;9.870;2023-04-03T16:26:39;3.05;;;1.60;;
65463;SDS011;52063;45.110;9.870;2023-04-03T16:29:05;1.97;;;1.70;;
65463;SDS011;52063;45.110;9.870;2023-04-03T16:31:30;2.77;;;1.70;;
65463;SDS011;52063;45.110;9.870;2023-04-03T16:33:57;4.43;;;1.90;;
65463;SDS011;52063;45.110;9.870;2023-04-03T16:36:23;1.93;;;1.57;;
65463;SDS011;52063;45.110;9.870;2023-04-03T16:38:50;2.95;;;1.70;;
65463;SDS011;52063;45.110;9.870;2023-04-03T16:41:16;3.33;;;1.73;;
65463;SDS011;52063;45.110;9.870;2023-04-03T16:43:41;2.35;;;1.70;;
65463;SDS011;52063;45.110;9.870;2023-04-03T16:46:06;2.07;;;1.87;;
65463;SDS011;52063;45.110;9.870;2023-04-03T16:48:32;1.70;;;1.60;;
65463;SDS011;52063;45.110;9.870;2023-04-03T16:50:57;3.17;;;2.00;;
65463;SDS011;52063;45.110;9.870;2023-04-03T16:53:24;3.50;;;1.60;;
65463;SDS011;52063;45.110;9.870;2023-04-03T16:55:50;3.40;;;2.17;;